Time;durP1;ratioP1;P1;durP2;ratioP2;P2;SDS_P1;SDS_P2;PMS_P1;PMS_P2;Temp;Humidity;BMP_temperature;BMP_pressure;BME280_temperature;BME280_humidity;BME280_pressure;Samples;Min_cycle;Max_cycle;Signal;HPM_P1;HPM_P2
2023/04/22 00:01:54;;;;;;;2.67;2.47;;;11.10;99.90;;;;;;468719;254;28351;-74
2023/04/22 00:03:55;;;;;;;2.20;2.10;;;11.00;99.90;;;;;;468751;254;28333;-74
2023/04/22 00:05:57;;;;;;;2.53;2.33;;;11.00;99.90;;;;;;468705;254;28491;-74
2023/04/22 00:07:58;;;;;;;2.43;2.20;;;11.00;99.90;;;;;;468742;254;28862;-75
2023/04/22 00:09:59;;;;;;;2.40;2.10;;;11.00;99.90;;;;;;468743;254;28242;-74
2023/04/22 00:12:01;;;;;;;5.03;2.10;;;11.00;99.90;;;;;;468756;254;28277;-74
2023/04/22 00:14:02;;;;;;;3.60;2.83;;;10.90;99.90;;;;;;468701;254;28722;-74
2023/04/22 00:16:03;;;;;;;2.47;2.10;;;11.00;99.90;;;;;;468666;254;28804;-73
2023/04/22 00:18:06;;;;;;;2.20;2.10;;;10.90;99.90;;;;;;468735;254;28731;-74
2023/04/22 00:20:06;;;;;;;2.63;2.30;;;10.90;99.90;;;;;;468626;254;28711;-74
2023/04/22 00:22:07;;;;;;;2.63;2.43;;;10.90;99.90;;;;;;468701;254;28193;-74
2023/04/22 00:24:08;;;;;;;2.43;2.20;;;10.90;99.90;;;;;;468696;254;28291;-74
2023/04/22 00:26:09;;;;;;;2.93;2.67;;;10.90;99.90;;;;;;468700;254;28371;-74
2023/04/22 00:28:10;;;;;;;2.40;2.20;;;10.90;99.90;;;;;;468700;254;28320;-75
2023/04/22 00:30:12;;;;;;;2.40;2.20;;;11.00;99.90;;;;;;468752;254;28152;-74
2023/04/22 00:32:13;;;;;;;2.50;2.30;;;10.90;99.90;;;;;;468767;254;28385;-74
2023/04/22 00:34:16;;;;;;;5.27;3.13;;;10.90;99.90;;;;;;468687;254;28150;-74
2023/04/22 00:36:15;;;;;;;7.27;2.33;;;10.90;99.90;;;;;;468566;254;28308;-74
2023/04/22 00:38:17;;;;;;;2.57;2.37;;;10.80;99.90;;;;;;468763;254;27936;-74
2023/04/22 00:40:18;;;;;;;2.03;1.93;;;10.80;99.90;;;;;;468769;254;28758;-74
2023/04/22 00:42:19;;;;;;;2.50;2.30;;;10.80;99.90;;;;;;468744;254;28693;-74
2023/04/22 00:44:20;;;;;;;2.70;2.43;;;10.80;99.90;;;;;;468630;254;28703;-74
2023/04/22 00:46:22;;;;;;;2.60;2.40;;;10.70;99.90;;;;;;468709;254;28336;-74
2023/04/22 00:48:23;;;;;;;2.63;2.40;;;10.70;99.90;;;;;;468770;254;28142;-74
2023/04/22 00:50:24;;;;;;;3.20;2.27;;;10.70;99.90;;;;;;468711;254;28136;-74
2023/04/22 00:52:25;;;;;;;2.40;2.20;;;10.70;99.90;;;;;;468761;254;28260;-74
2023/04/22 00:54:27;;;;;;;2.80;2.60;;;10.60;99.90;;;;;;468654;254;28224;-74
2023/04/22 00:56:28;;;;;;;3.40;2.80;;;10.60;99.90;;;;;;468765;254;28331;-74
2023/04/22 00:58:29;;;;;;;2.80;2.60;;;10.50;99.90;;;;;;468738;254;28171;-74
2023/04/22 01:00:30;;;;;;;3.40;2.60;;;10.50;99.90;;;;;;468740;254;28105;-74
2023/04/22 01:02:32;;;;;;;3.07;2.60;;;10.40;99.90;;;;;;468755;253;28282;-74
2023/04/22 01:04:33;;;;;;;2.73;2.53;;;10.40;99.90;;;;;;468665;254;28649;-74
2023/04/22 01:06:35;;;;;;;2.77;2.57;;;10.50;99.90;;;;;;468730;254;28487;-74
2023/04/22 01:08:35;;;;;;;3.70;2.37;;;10.50;99.90;;;;;;468781;254;28532;-74
2023/04/22 01:10:37;;;;;;;2.57;2.37;;;10.50;99.90;;;;;;468714;254;28100;-73
2023/04/22 01:12:38;;;;;;;2.30;2.13;;;10.50;99.90;;;;;;468788;254;28205;-74
2023/04/22 01:14:39;;;;;;;2.53;2.33;;;10.40;99.90;;;;;;468644;254;28190;-74
2023/04/22 01:16:42;;;;;;;2.50;2.20;;;10.40;99.90;;;;;;468760;254;28160;-74
2023/04/22 01:18:42;;;;;;;8.20;2.40;;;10.40;99.90;;;;;;468657;254;28142;-75
2023/04/22 01:20:44;;;;;;;7.63;3.20;;;10.40;99.90;;;;;;468736;254;28253;-74
2023/04/22 01:22:44;;;;;;;2.30;2.10;;;10.40;99.90;;;;;;468712;250;28082;-74
2023/04/22 01:24:45;;;;;;;2.70;2.33;;;10.40;99.90;;;;;;468676;250;28203;-74
2023/04/22 01:26:47;;;;;;;2.93;2.73;;;10.40;99.90;;;;;;468720;254;28348;-74
2023/04/22 01:28:48;;;;;;;3.00;2.70;;;10.30;99.90;;;;;;468750;254;28569;-74
2023/04/22 01:30:49;;;;;;;3.17;2.50;;;10.30;99.90;;;;;;468703;254;28459;-74
2023/04/22 01:32:50;;;;;;;2.57;2.37;;;10.30;99.90;;;;;;468785;254;28658;-74
2023/04/22 01:34:52;;;;;;;3.10;2.80;;;10.30;99.90;;;;;;468713;254;29418;-73
2023/04/22 01:36:53;;;;;;;3.57;2.40;;;10.30;99.90;;;;;;468730;254;28144;-74
2023/04/22 01:38:54;;;;;;;2.33;2.13;;;10.20;99.90;;;;;;468782;254;28209;-74
2023/04/22 01:40:55;;;;;;;5.27;2.80;;;10.10;99.90;;;;;;468758;254;28096;-73
2023/04/22 01:42:57;;;;;;;2.90;2.70;;;10.10;99.90;;;;;;468779;254;28063;-74
2023/04/22 01:44:58;;;;;;;3.67;2.50;;;10.10;99.90;;;;;;468716;254;28053;-74
2023/04/22 01:46:59;;;;;;;3.57;2.40;;;10.00;99.90;;;;;;468724;254;28053;-74
2023/04/22 01:49:00;;;;;;;3.30;2.40;;;9.90;99.90;;;;;;468773;254;28154;-74
2023/04/22 01:51:02;;;;;;;3.50;2.67;;;9.90;99.90;;;;;;468751;254;27906;-73
2023/04/22 01:53:03;;;;;;;2.60;2.40;;;9.90;99.90;;;;;;468722;254;28193;-74
2023/04/22 01:55:04;;;;;;;3.13;2.47;;;9.90;99.90;;;;;;468632;254;28031;-74
2023/04/22 01:57:05;;;;;;;2.70;2.50;;;9.90;99.90;;;;;;468710;254;28605;-73
2023/04/22 01:59:07;;;;;;;3.23;2.47;;;9.90;99.90;;;;;;468775;254;28517;-75
2023/04/22 02:01:08;;;;;;;2.73;2.50;;;9.80;99.90;;;;;;468740;254;27942;-74
2023/04/22 02:03:09;;;;;;;2.37;2.23;;;9.80;99.90;;;;;;468593;254;28286;-73
2023/04/22 02:05:10;;;;;;;2.80;2.60;;;9.90;99.90;;;;;;468704;254;27696;-73
2023/04/22 02:07:12;;;;;;;2.63;2.40;;;9.80;99.90;;;;;;468690;254;28083;-74
2023/04/22 02:09:13;;;;;;;4.90;3.20;;;9.90;99.90;;;;;;468735;254;28219;-74
2023/04/22 02:11:14;;;;;;;3.13;2.93;;;9.80;99.90;;;;;;468750;254;28036;-74
2023/04/22 02:13:15;;;;;;;4.10;2.57;;;9.80;99.90;;;;;;468724;254;28084;-74
2023/04/22 02:15:17;;;;;;;2.70;2.50;;;9.80;99.90;;;;;;468651;254;28471;-73
2023/04/22 02:17:18;;;;;;;5.77;2.83;;;9.80;99.90;;;;;;468693;254;28873;-74
2023/04/22 02:19:19;;;;;;;2.67;2.47;;;9.80;99.90;;;;;;468749;254;28642;-75
2023/04/22 02:21:21;;;;;;;3.57;2.43;;;9.80;99.90;;;;;;468748;254;28429;-74
2023/04/22 02:23:22;;;;;;;2.83;2.30;;;9.80;99.90;;;;;;468714;254;28537;-74
2023/04/22 02:25:23;;;;;;;2.27;2.17;;;9.80;99.90;;;;;;468702;254;28111;-74
2023/04/22 02:27:24;;;;;;;2.67;2.37;;;9.80;99.90;;;;;;468744;254;28053;-74
2023/04/22 02:29:26;;;;;;;3.33;2.50;;;9.70;99.90;;;;;;468738;254;28033;-75
2023/04/22 02:31:27;;;;;;;2.63;2.43;;;9.80;99.90;;;;;;468757;254;27988;-74
2023/04/22 02:33:28;;;;;;;2.80;2.60;;;9.70;99.90;;;;;;468700;254;28187;-74
2023/04/22 02:35:29;;;;;;;3.30;2.90;;;9.60;99.90;;;;;;468656;254;28021;-73
2023/04/22 02:37:30;;;;;;;2.97;2.67;;;9.60;99.90;;;;;;468708;254;28036;-74
2023/04/22 02:39:32;;;;;;;2.87;2.60;;;9.60;99.90;;;;;;468704;254;28117;-74
2023/04/22 02:41:33;;;;;;;2.50;2.30;;;9.60;99.90;;;;;;468692;254;28031;-74
2023/04/22 02:43:34;;;;;;;2.80;2.50;;;9.50;99.90;;;;;;468690;254;28076;-74
2023/04/22 02:45:35;;;;;;;3.20;2.90;;;9.50;99.90;;;;;;468655;254;28120;-73
2023/04/22 02:47:37;;;;;;;3.30;3.00;;;9.50;99.90;;;;;;468681;254;28055;-74
2023/04/22 02:49:38;;;;;;;5.40;3.10;;;9.40;99.90;;;;;;468712;254;27712;-75
2023/04/22 02:51:39;;;;;;;5.23;3.27;;;9.40;99.90;;;;;;468727;254;27792;-74
2023/04/22 02:53:40;;;;;;;3.13;2.50;;;9.40;99.90;;;;;;468744;254;28619;-74
2023/04/22 02:55:42;;;;;;;2.93;2.63;;;9.30;99.90;;;;;;468722;254;28160;-74
2023/04/22 02:57:43;;;;;;;3.97;3.20;;;9.30;99.90;;;;;;468754;254;28579;-74
2023/04/22 02:59:45;;;;;;;3.10;2.80;;;9.20;99.90;;;;;;468709;254;29411;-74
2023/04/22 03:01:45;;;;;;;3.10;2.80;;;9.20;99.90;;;;;;468726;254;28293;-73
2023/04/22 03:03:47;;;;;;;3.90;2.83;;;9.20;99.90;;;;;;468760;254;28544;-74
2023/04/22 03:05:48;;;;;;;4.87;3.00;;;9.20;99.90;;;;;;468672;254;28426;-73
2023/04/22 03:07:49;;;;;;;3.43;3.13;;;9.20;99.90;;;;;;468777;254;27692;-73
2023/04/22 03:09:50;;;;;;;5.37;2.80;;;9.20;99.90;;;;;;468769;254;27573;-73
2023/04/22 03:11:52;;;;;;;2.80;2.60;;;9.10;99.90;;;;;;468790;254;27642;-74
2023/04/22 03:13:53;;;;;;;2.97;2.63;;;9.10;99.90;;;;;;468770;254;28081;-74
2023/04/22 03:15:54;;;;;;;2.87;2.67;;;9.10;99.90;;;;;;468671;254;28112;-74
2023/04/22 03:17:55;;;;;;;9.30;2.97;;;9.10;99.90;;;;;;468674;254;28163;-73
2023/04/22 03:19:57;;;;;;;3.13;2.53;;;9.10;99.90;;;;;;468721;254;28128;-73
2023/04/22 03:21:58;;;;;;;4.03;2.80;;;9.10;99.90;;;;;;468756;254;28049;-73
2023/04/22 03:23:59;;;;;;;3.27;2.97;;;9.00;99.90;;;;;;468760;254;28207;-74
2023/04/22 03:26:00;;;;;;;3.67;2.60;;;9.00;99.90;;;;;;468684;254;27657;-74
2023/04/22 03:28:02;;;;;;;3.27;2.97;;;9.00;99.90;;;;;;468744;254;28065;-74
2023/04/22 03:30:03;;;;;;;2.77;2.57;;;8.90;99.90;;;;;;468735;254;28031;-73
2023/04/22 03:32:04;;;;;;;3.30;3.03;;;8.90;99.90;;;;;;468715;254;28466;-73
2023/04/22 03:34:05;;;;;;;3.90;3.13;;;8.80;99.90;;;;;;468751;250;28536;-74
2023/04/22 03:36:07;;;;;;;4.07;2.80;;;8.80;99.90;;;;;;468652;254;28532;-73
2023/04/22 03:38:08;;;;;;;3.17;2.83;;;8.80;99.90;;;;;;468763;254;28535;-74
2023/04/22 03:40:09;;;;;;;8.50;3.03;;;8.80;99.90;;;;;;468722;254;28626;-74
2023/04/22 03:42:10;;;;;;;2.70;2.50;;;8.80;99.90;;;;;;468707;254;28484;-73
2023/04/22 03:44:12;;;;;;;2.77;2.57;;;8.70;99.90;;;;;;468736;254;28056;-74
2023/04/22 03:46:13;;;;;;;2.93;2.73;;;8.80;99.90;;;;;;468681;254;28019;-73
2023/04/22 03:48:14;;;;;;;2.60;2.40;;;8.70;99.90;;;;;;468722;254;27958;-74
2023/04/22 03:50:15;;;;;;;2.50;2.30;;;8.70;99.90;;;;;;468731;254;27848;-73
2023/04/22 03:52:17;;;;;;;4.60;2.80;;;8.70;99.90;;;;;;468729;254;28007;-74
2023/04/22 03:54:18;;;;;;;2.60;2.40;;;8.70;99.90;;;;;;468724;254;28061;-75
2023/04/22 03:56:20;;;;;;;3.70;2.40;;;8.70;99.90;;;;;;468685;254;28054;-74
2023/04/22 03:58:20;;;;;;;2.70;2.50;;;8.70;99.90;;;;;;468738;254;27944;-73
2023/04/22 04:00:22;;;;;;;2.70;2.50;;;8.70;99.90;;;;;;468731;254;27772;-74
2023/04/22 04:02:23;;;;;;;3.17;2.60;;;8.70;99.90;;;;;;468712;254;28058;-74
2023/04/22 04:04:25;;;;;;;3.67;2.80;;;8.70;99.90;;;;;;468681;254;28421;-74
2023/04/22 04:06:25;;;;;;;5.60;2.60;;;8.60;99.90;;;;;;468703;254;28032;-74
2023/04/22 04:08:27;;;;;;;6.27;2.60;;;8.60;99.90;;;;;;468717;254;27919;-73
2023/04/22 04:10:28;;;;;;;3.07;2.77;;;8.70;99.90;;;;;;468727;254;28139;-73
2023/04/22 04:12:29;;;;;;;3.73;2.50;;;8.70;99.90;;;;;;468695;254;28426;-74
2023/04/22 04:14:30;;;;;;;3.03;2.73;;;8.70;99.90;;;;;;468696;254;28430;-74
2023/04/22 04:16:32;;;;;;;3.10;2.80;;;8.70;99.90;;;;;;468777;254;28491;-74
2023/04/22 04:18:33;;;;;;;3.10;2.80;;;8.70;99.90;;;;;;468769;254;28536;-73
2023/04/22 04:20:34;;;;;;;2.70;2.50;;;8.70;99.90;;;;;;469987;245;28332;-74
2023/04/22 04:22:36;;;;;;;2.60;2.40;;;8.80;99.90;;;;;;472980;251;28483;-74
2023/04/22 04:24:40;;;;;;;2.97;2.57;;;8.80;99.90;;;;;;472964;251;27808;-74
2023/04/22 04:26:38;;;;;;;2.57;2.37;;;8.90;99.90;;;;;;472793;249;27743;-73
2023/04/22 04:28:40;;;;;;;2.50;2.30;;;8.90;99.90;;;;;;472979;251;28055;-74
2023/04/22 04:30:41;;;;;;;3.60;2.63;;;9.00;99.90;;;;;;474142;249;28019;-73
2023/04/22 04:32:44;;;;;;;2.47;2.10;;;9.00;99.90;;;;;;476755;249;28093;-74
2023/04/22 04:34:43;;;;;;;2.90;2.40;;;9.00;99.90;;;;;;476516;249;27999;-73
2023/04/22 04:36:45;;;;;;;2.80;2.60;;;9.10;99.90;;;;;;476680;249;27778;-73
2023/04/22 04:38:46;;;;;;;3.53;2.27;;;9.10;99.90;;;;;;476778;249;28012;-74
2023/04/22 04:40:48;;;;;;;2.70;2.50;;;9.10;99.90;;;;;;476682;249;28012;-74
2023/04/22 04:42:48;;;;;;;3.10;2.80;;;9.10;99.90;;;;;;474629;250;28007;-74
2023/04/22 04:44:49;;;;;;;2.40;2.30;;;9.10;99.90;;;;;;476522;249;27932;-73
2023/04/22 04:46:50;;;;;;;2.43;2.23;;;9.10;99.90;;;;;;475579;250;27937;-73
2023/04/22 04:48:52;;;;;;;2.50;2.30;;;9.00;99.90;;;;;;476706;249;27920;-74
2023/04/22 04:50:53;;;;;;;2.33;2.20;;;9.00;99.90;;;;;;478467;248;28489;-73
2023/04/22 04:52:54;;;;;;;2.90;2.60;;;9.00;99.90;;;;;;478535;247;28713;-74
2023/04/22 04:54:55;;;;;;;2.50;2.30;;;9.00;99.90;;;;;;478484;248;28729;-74
2023/04/22 04:56:57;;;;;;;2.30;2.10;;;9.00;99.90;;;;;;478528;248;28688;-74
2023/04/22 04:58:58;;;;;;;2.43;2.17;;;9.00;99.90;;;;;;478579;248;28481;-73
2023/04/22 05:00:59;;;;;;;4.20;2.30;;;8.90;99.90;;;;;;478521;248;28495;-74
2023/04/22 05:03:00;;;;;;;4.80;2.70;;;9.00;99.90;;;;;;478551;248;28252;-74
2023/04/22 05:05:02;;;;;;;2.73;2.53;;;8.90;99.90;;;;;;478476;248;28070;-73
2023/04/22 05:07:03;;;;;;;3.37;1.90;;;8.90;99.90;;;;;;478540;248;28062;-74
2023/04/22 05:09:06;;;;;;;2.77;2.47;;;8.90;99.90;;;;;;478595;248;27900;-74
2023/04/22 05:11:05;;;;;;;3.00;2.50;;;8.90;99.90;;;;;;478401;248;27980;-74
2023/04/22 05:13:07;;;;;;;2.07;1.97;;;8.90;99.90;;;;;;478517;248;27737;-73
2023/04/22 05:15:08;;;;;;;2.40;2.30;;;8.90;99.90;;;;;;478486;248;28212;-73
2023/04/22 05:17:09;;;;;;;2.87;2.20;;;9.00;99.90;;;;;;478526;248;28035;-74
2023/04/22 05:19:10;;;;;;;2.40;2.00;;;9.00;99.90;;;;;;478584;248;28032;-74
2023/04/22 05:21:12;;;;;;;2.40;2.20;;;9.00;99.90;;;;;;478564;248;28067;-74
2023/04/22 05:23:13;;;;;;;2.73;2.53;;;9.10;99.90;;;;;;478516;248;28030;-73
2023/04/22 05:25:14;;;;;;;3.20;2.37;;;9.10;99.90;;;;;;478457;248;27712;-73
2023/04/22 05:27:15;;;;;;;3.30;2.50;;;9.30;99.90;;;;;;478505;248;28114;-74
2023/04/22 05:29:17;;;;;;;3.33;2.20;;;9.30;99.90;;;;;;478557;248;27912;-74
2023/04/22 05:31:18;;;;;;;3.10;2.33;;;9.30;99.90;;;;;;478539;248;28445;-73
2023/04/22 05:33:19;;;;;;;3.87;2.50;;;9.40;99.90;;;;;;478506;248;28867;-73
2023/04/22 05:35:20;;;;;;;2.43;2.23;;;9.40;99.90;;;;;;478490;248;28512;-74
2023/04/22 05:37:22;;;;;;;2.33;2.17;;;9.50;99.90;;;;;;478479;248;28541;-74
2023/04/22 05:39:23;;;;;;;2.03;1.93;;;9.60;99.90;;;;;;478560;248;28444;-74
2023/04/22 05:41:25;;;;;;;2.00;1.90;;;9.70;99.90;;;;;;478552;248;27965;-74
2023/04/22 05:43:25;;;;;;;2.37;2.17;;;9.80;99.90;;;;;;478543;248;27771;-74
2023/04/22 05:45:27;;;;;;;2.00;1.90;;;10.00;99.90;;;;;;478474;248;27983;-73
2023/04/22 05:47:28;;;;;;;2.30;2.10;;;10.00;99.90;;;;;;478567;248;27981;-74
2023/04/22 05:49:29;;;;;;;2.50;2.00;;;10.10;99.90;;;;;;478550;248;28203;-73
2023/04/22 05:51:31;;;;;;;2.07;1.97;;;10.20;99.90;;;;;;478552;248;28005;-74
2023/04/22 05:53:32;;;;;;;2.33;2.13;;;10.50;99.90;;;;;;478483;248;28115;-74
2023/04/22 05:55:33;;;;;;;2.13;2.03;;;10.60;99.90;;;;;;478473;248;28196;-74
2023/04/22 05:57:34;;;;;;;2.47;2.17;;;10.80;99.90;;;;;;478527;248;27923;-74
2023/04/22 05:59:35;;;;;;;2.10;2.00;;;11.00;99.90;;;;;;478529;248;28086;-73
2023/04/22 06:01:37;;;;;;;2.80;2.23;;;11.10;99.90;;;;;;478570;248;28408;-74
2023/04/22 06:03:38;;;;;;;3.30;1.80;;;11.40;99.90;;;;;;478567;248;28978;-74
2023/04/22 06:05:39;;;;;;;2.43;2.23;;;11.60;99.90;;;;;;478513;248;28557;-74
2023/04/22 06:07:40;;;;;;;2.47;2.10;;;11.80;99.90;;;;;;478567;248;28831;-74
2023/04/22 06:09:42;;;;;;;1.80;1.70;;;12.00;99.90;;;;;;478483;248;28326;-74
2023/04/22 06:11:43;;;;;;;2.90;1.90;;;12.20;99.90;;;;;;478559;248;28361;-74
2023/04/22 06:13:44;;;;;;;1.77;1.67;;;12.30;99.90;;;;;;484283;245;28162;-74
2023/04/22 06:15:45;;;;;;;1.70;1.60;;;12.40;99.90;;;;;;493277;241;28370;-74
2023/04/22 06:17:47;;;;;;;1.70;1.60;;;12.50;99.90;;;;;;493347;241;28892;-74
2023/04/22 06:19:48;;;;;;;2.30;2.03;;;12.60;99.90;;;;;;493347;241;28636;-74
2023/04/22 06:21:49;;;;;;;1.90;1.80;;;12.70;99.90;;;;;;493396;241;28610;-77
2023/04/22 06:23:50;;;;;;;1.83;1.70;;;12.70;99.90;;;;;;493381;241;28718;-76
2023/04/22 06:25:52;;;;;;;1.93;1.83;;;12.70;99.90;;;;;;493313;241;28057;-75
2023/04/22 06:27:53;;;;;;;1.87;1.77;;;12.70;99.90;;;;;;493384;241;27937;-75
2023/04/22 06:29:54;;;;;;;1.90;1.80;;;12.80;99.90;;;;;;493321;241;28048;-76
2023/04/22 06:31:55;;;;;;;1.80;1.70;;;12.80;99.90;;;;;;493357;241;27945;-75
2023/04/22 06:33:57;;;;;;;2.00;1.90;;;12.90;99.90;;;;;;493377;241;28081;-76
2023/04/22 06:35:58;;;;;;;2.00;1.50;;;12.80;99.90;;;;;;493312;241;28666;-76
2023/04/22 06:37:59;;;;;;;2.30;1.70;;;12.70;99.90;;;;;;493370;241;28081;-76
2023/04/22 06:40:00;;;;;;;5.67;4.40;;;12.70;99.90;;;;;;493360;241;28071;-75
2023/04/22 06:42:02;;;;;;;33.07;19.37;;;12.70;99.90;;;;;;493311;241;29163;-76
2023/04/22 06:44:03;;;;;;;23.50;16.83;;;12.60;99.90;;;;;;493395;241;28692;-76
2023/04/22 06:46:04;;;;;;;13.93;10.90;;;12.60;99.90;;;;;;493332;241;28455;-76
2023/04/22 06:48:05;;;;;;;6.07;5.30;;;12.70;99.90;;;;;;493363;241;28282;-76
2023/04/22 06:50:07;;;;;;;5.10;4.10;;;12.80;99.90;;;;;;493350;241;28085;-76
2023/04/22 06:52:08;;;;;;;3.53;3.23;;;12.80;99.90;;;;;;493329;241;28209;-76
2023/04/22 06:54:09;;;;;;;3.10;2.80;;;13.00;99.90;;;;;;493393;241;28431;-77
2023/04/22 06:56:11;;;;;;;2.40;2.30;;;13.00;99.90;;;;;;493343;241;28086;-76
2023/04/22 06:58:12;;;;;;;3.03;2.70;;;13.00;99.90;;;;;;493324;241;29274;-77
2023/04/22 07:00:13;;;;;;;2.93;2.63;;;13.20;99.90;;;;;;493366;241;28513;-76
2023/04/22 07:02:14;;;;;;;3.20;2.40;;;13.20;99.90;;;;;;493349;241;28568;-76
2023/04/22 07:04:16;;;;;;;3.10;2.80;;;13.30;99.90;;;;;;493352;241;28638;-77
2023/04/22 07:06:17;;;;;;;2.97;2.70;;;13.30;99.90;;;;;;493358;241;28029;-75
2023/04/22 07:08:18;;;;;;;3.00;2.70;;;13.40;99.90;;;;;;493350;241;28245;-76
2023/04/22 07:10:19;;;;;;;2.53;2.33;;;13.50;99.90;;;;;;493398;241;28030;-76
2023/04/22 07:12:21;;;;;;;3.33;3.03;;;13.60;99.90;;;;;;493397;241;28159;-76
2023/04/22 07:14:22;;;;;;;2.87;2.60;;;13.80;99.90;;;;;;493346;241;28062;-76
2023/04/22 07:16:23;;;;;;;2.60;2.40;;;13.70;99.90;;;;;;493414;241;28174;-76
2023/04/22 07:18:24;;;;;;;8.50;2.60;;;13.70;99.90;;;;;;493382;241;28243;-76
2023/04/22 07:20:26;;;;;;;3.10;2.80;;;13.70;99.90;;;;;;493387;241;28144;-76
2023/04/22 07:22:27;;;;;;;3.23;2.67;;;13.80;99.90;;;;;;493356;241;28078;-77
2023/04/22 07:24:28;;;;;;;3.80;3.50;;;14.00;99.90;;;;;;493277;241;29455;-76
2023/04/22 07:26:30;;;;;;;4.33;2.90;;;14.00;99.90;;;;;;493384;241;28829;-76
2023/04/22 07:28:31;;;;;;;3.63;2.67;;;14.00;99.90;;;;;;487900;241;28782;-76
2023/04/22 07:30:32;;;;;;;4.17;3.77;;;14.10;99.90;;;;;;484490;245;28201;-76
2023/04/22 07:32:33;;;;;;;9.03;6.57;;;14.10;99.90;;;;;;483447;245;28261;-75
2023/04/22 07:34:34;;;;;;;5.90;5.17;;;14.20;99.90;;;;;;476459;249;28410;-75
2023/04/22 07:36:36;;;;;;;11.30;8.53;;;14.20;99.90;;;;;;473611;250;28350;-76
2023/04/22 07:38:37;;;;;;;8.17;5.73;;;14.30;99.90;;;;;;474471;249;28306;-76
2023/04/22 07:40:38;;;;;;;5.10;4.60;;;14.30;99.90;;;;;;478352;248;28559;-76
2023/04/22 07:42:39;;;;;;;5.87;4.63;;;14.50;99.90;;;;;;478250;248;28467;-76
2023/04/22 07:44:41;;;;;;;3.37;3.07;;;14.60;99.90;;;;;;478045;248;28455;-75
2023/04/22 07:46:42;;;;;;;8.23;5.70;;;14.60;99.90;;;;;;478346;248;28602;-76
2023/04/22 07:48:43;;;;;;;3.43;3.10;;;14.70;99.90;;;;;;478377;248;29070;-76
2023/04/22 07:50:44;;;;;;;5.40;4.00;;;14.90;99.90;;;;;;478356;248;28870;-75
2023/04/22 07:52:46;;;;;;;3.20;2.90;;;15.10;99.10;;;;;;478352;248;29356;-75
2023/04/22 07:54:47;;;;;;;3.40;2.77;;;15.10;99.00;;;;;;478285;248;28546;-77
2023/04/22 07:56:48;;;;;;;7.20;3.60;;;15.20;99.40;;;;;;478319;248;28884;-76
2023/04/22 07:58:49;;;;;;;2.93;2.40;;;15.40;97.80;;;;;;478401;248;28929;-76
2023/04/22 08:00:51;;;;;;;9.37;5.07;;;15.50;97.30;;;;;;478363;248;28904;-77
2023/04/22 08:02:52;;;;;;;5.23;3.00;;;15.60;96.20;;;;;;478374;248;28917;-76
2023/04/22 08:04:53;;;;;;;3.47;3.17;;;15.70;96.00;;;;;;478293;248;28843;-76
2023/04/22 08:06:56;;;;;;;3.23;2.93;;;15.80;95.50;;;;;;478303;248;28937;-75
2023/04/22 08:08:56;;;;;;;4.00;3.43;;;15.90;95.60;;;;;;478312;248;28895;-76
2023/04/22 08:10:57;;;;;;;3.60;2.33;;;16.00;95.60;;;;;;478330;248;28852;-75
2023/04/22 08:12:58;;;;;;;5.43;4.90;;;16.00;95.60;;;;;;478379;248;29402;-76
2023/04/22 08:15:00;;;;;;;4.00;3.60;;;16.00;96.10;;;;;;478545;242;29246;-76
2023/04/22 08:17:01;;;;;;;4.50;4.10;;;16.20;96.10;;;;;;488216;243;28768;-76
2023/04/22 08:19:02;;;;;;;3.43;2.13;;;16.30;95.70;;;;;;486725;242;28757;-75
2023/04/22 08:21:03;;;;;;;5.87;4.67;;;16.50;95.30;;;;;;476725;249;28852;-76
2023/04/22 08:23:05;;;;;;;3.70;3.03;;;16.70;94.10;;;;;;467971;251;29301;-75
2023/04/22 08:25:07;;;;;;;3.80;3.43;;;16.90;93.20;;;;;;474397;246;29318;-76
2023/04/22 08:27:07;;;;;;;5.30;4.80;;;17.10;91.70;;;;;;471555;252;29296;-75
2023/04/22 08:29:09;;;;;;;2.87;2.57;;;17.10;92.60;;;;;;474414;249;29014;-76
2023/04/22 08:31:11;;;;;;;3.80;2.63;;;17.20;90.70;;;;;;471489;252;28733;-75
2023/04/22 08:33:11;;;;;;;4.70;2.07;;;17.10;89.90;;;;;;474222;250;28936;-76
2023/04/22 08:35:12;;;;;;;2.23;1.90;;;16.90;91.10;;;;;;471572;247;28747;-77
2023/04/22 08:37:14;;;;;;;3.63;2.80;;;16.90;91.20;;;;;;474350;250;29334;-75
2023/04/22 08:39:16;;;;;;;3.50;2.27;;;16.90;91.60;;;;;;480005;245;28907;-75
2023/04/22 08:41:17;;;;;;;3.50;1.97;;;16.80;90.90;;;;;;484438;245;28841;-76
2023/04/22 08:43:17;;;;;;;2.00;1.80;;;16.80;91.40;;;;;;484496;245;28929;-76
2023/04/22 08:45:19;;;;;;;1.90;1.80;;;16.80;91.00;;;;;;484367;245;28844;-76
2023/04/22 08:47:20;;;;;;;3.00;2.23;;;16.80;90.70;;;;;;484528;245;28877;-77
2023/04/22 08:49:21;;;;;;;2.07;1.87;;;16.80;90.50;;;;;;484399;245;29281;-77
2023/04/22 08:51:22;;;;;;;2.83;2.07;;;16.70;90.50;;;;;;484458;245;29378;-75
2023/04/22 08:53:24;;;;;;;2.00;1.80;;;16.70;92.50;;;;;;484545;242;29307;-75
2023/04/22 08:55:25;;;;;;;4.70;2.07;;;16.70;91.70;;;;;;484395;245;28914;-76
2023/04/22 08:57:26;;;;;;;2.40;2.20;;;16.70;92.30;;;;;;484525;245;28847;-76
2023/04/22 08:59:28;;;;;;;2.43;2.23;;;16.70;89.80;;;;;;482758;245;28857;-76
2023/04/22 09:01:29;;;;;;;2.63;2.10;;;16.80;90.80;;;;;;476892;249;28714;-76
2023/04/22 09:03:30;;;;;;;4.37;2.50;;;16.80;97.40;;;;;;468121;251;29172;-76
2023/04/22 09:05:31;;;;;;;2.57;2.37;;;16.80;87.60;;;;;;481021;246;28880;-76
2023/04/22 09:07:34;;;;;;;5.50;2.23;;;16.80;86.30;;;;;;478470;247;28882;-76
2023/04/22 09:09:34;;;;;;;2.40;2.07;;;16.80;86.40;;;;;;478314;248;28839;-76
2023/04/22 09:11:35;;;;;;;1.93;1.83;;;16.70;88.30;;;;;;478448;248;28961;-77
2023/04/22 09:13:36;;;;;;;4.93;2.40;;;16.80;90.20;;;;;;478369;248;29353;-76
2023/04/22 09:15:37;;;;;;;3.63;2.60;;;16.90;89.90;;;;;;477997;248;29432;-76
2023/04/22 09:17:40;;;;;;;2.50;1.90;;;16.90;90.10;;;;;;478355;248;28905;-75
2023/04/22 09:19:40;;;;;;;4.43;2.30;;;17.00;90.40;;;;;;478429;248;28854;-76
2023/04/22 09:21:41;;;;;;;1.77;1.67;;;17.00;89.60;;;;;;478503;248;28890;-76
2023/04/22 09:23:43;;;;;;;3.23;2.17;;;17.00;86.30;;;;;;478439;248;28847;-76
2023/04/22 09:25:44;;;;;;;2.40;2.13;;;17.10;91.60;;;;;;478061;248;28954;-76
2023/04/22 09:27:45;;;;;;;3.83;2.00;;;17.30;89.50;;;;;;476573;248;36322;-76
2023/04/22 09:29:46;;;;;;;2.60;2.23;;;17.20;99.90;;;;;;478137;248;27575;-76
2023/04/22 09:31:48;;;;;;;2.33;1.90;;;17.40;99.90;;;;;;478468;248;28904;-76
2023/04/22 09:33:49;;;;;;;3.00;1.87;;;17.40;99.90;;;;;;478451;248;28916;-76
2023/04/22 09:35:50;;;;;;;1.70;1.60;;;17.20;99.90;;;;;;478415;248;29581;-76
2023/04/22 09:37:51;;;;;;;2.40;2.20;;;17.00;99.90;;;;;;478470;248;29348;-76
2023/04/22 09:39:52;;;;;;;2.33;2.10;;;17.00;99.90;;;;;;478455;248;29413;-76
2023/04/22 09:41:55;;;;;;;2.57;2.20;;;17.00;99.90;;;;;;478516;248;28880;-76
2023/04/22 09:43:56;;;;;;;2.60;1.70;;;17.00;99.90;;;;;;478465;248;28849;-76
2023/04/22 09:45:56;;;;;;;4.57;1.93;;;17.10;99.90;;;;;;478397;248;28909;-76
2023/04/22 09:47:57;;;;;;;3.37;2.20;;;17.30;99.90;;;;;;478539;248;28833;-76
2023/04/22 09:49:59;;;;;;;1.70;1.60;;;17.30;99.90;;;;;;478333;248;28899;-76
2023/04/22 09:52:00;;;;;;;4.33;1.90;;;17.30;99.90;;;;;;478558;243;28973;-76
2023/04/22 09:54:07;;;;;;;4.70;1.90;;;17.20;99.90;;;;;;478550;248;28912;-75
2023/04/22 09:56:03;;;;;;;2.00;1.80;;;17.20;99.90;;;;;;478093;248;28997;-76
2023/04/22 09:58:04;;;;;;;2.80;2.10;;;17.20;99.80;;;;;;478538;248;28852;-76
2023/04/22 10:00:07;;;;;;;2.67;1.90;;;17.30;99.90;;;;;;478356;248;29457;-76
2023/04/22 10:02:06;;;;;;;2.60;2.20;;;17.60;99.00;;;;;;478453;248;29359;-76
2023/04/22 10:04:13;;;;;;;4.67;1.97;;;17.60;99.90;;;;;;478534;248;29443;-75
2023/04/22 10:06:09;;;;;;;2.10;1.83;;;17.80;99.60;;;;;;478119;246;28899;-75
2023/04/22 10:08:10;;;;;;;2.60;2.40;;;17.80;99.50;;;;;;478536;248;28883;-75
2023/04/22 10:10:11;;;;;;;4.47;2.27;;;17.80;99.40;;;;;;478485;248;28992;-76
2023/04/22 10:12:13;;;;;;;2.23;2.13;;;17.70;99.20;;;;;;478569;248;28918;-75
2023/04/22 10:14:14;;;;;;;3.53;2.40;;;17.60;98.50;;;;;;478544;243;28843;-75
2023/04/22 10:16:15;;;;;;;2.83;2.20;;;17.60;97.80;;;;;;478512;248;28895;-76
2023/04/22 10:18:16;;;;;;;2.43;1.87;;;17.60;98.50;;;;;;478568;248;28859;-75
2023/04/22 10:20:18;;;;;;;3.10;2.17;;;17.80;99.10;;;;;;478526;248;29034;-75
2023/04/22 10:22:19;;;;;;;3.23;1.93;;;18.00;96.90;;;;;;478543;248;29033;-76
2023/04/22 10:24:20;;;;;;;3.83;2.75;;;18.20;97.60;;;;;;476753;248;36883;-76
2023/04/22 10:26:21;;;;;;;9.87;8.17;;;18.40;96.90;;;;;;478526;248;28115;-76
2023/04/22 10:28:23;;;;;;;7.57;3.70;;;18.70;96.40;;;;;;478518;248;29329;-75
2023/04/22 10:30:24;;;;;;;10.30;6.87;;;18.70;96.60;;;;;;478502;248;28924;-76
2023/04/22 10:32:25;;;;;;;12.40;7.20;;;18.90;97.60;;;;;;478494;248;28931;-77
2023/04/22 10:34:26;;;;;;;7.00;3.17;;;18.90;97.70;;;;;;478486;248;28918;-76